Summerwind — WDF3461 — position and weather

sailwx.info

Track history (hours):
 
Tides and Currents Weather Stations Pressure Air Temp Water Temp Dewpoint Dewpoint Depression Visibility Wind Speed Wind Dir Waves Ship Positions

Summerwind (United States)

Ship's website: http://www.usmma.edu/waterfront

Owner: US Merchant Marine Academy, Kings Point, NY. More information available from US FCC via Universal Licensing System and Coast Guard Vessel Documentation Center.

Last reported at 2014-Oct-20 13:15 UTC. Time now 2014-Nov-24 21:41 UTC.
Position N 37°01' W 076°16'.
Warning: this ship's position is 35 days out of date.

Length 30 m.

Type: Sailing vessel. MMSI: 367440150.

Date/timePositionNaut miles runAvg speedWind from/ knotsBaromVisibWave heightAir tempDewpointWater temp
2014-Oct-20 13:15N 37°01' W 076°16'  
2014-Oct-17 13:05N 36°59' W 076°18'3 6.2
2014-Oct-17 12:32N 36°60' W 076°14'51 8.2
2014-Oct-17 06:22N 37°51' W 076°10'8 9.6
2014-Oct-17 05:33N 37°58' W 076°12'36 7.1
2014-Oct-17 00:27N 38°33' W 076°23'2 1.9
2014-Oct-16 23:33N 38°35' W 076°23'3 2.5
2014-Oct-16 22:33N 38°37' W 076°24'4 3.9
2014-Oct-16 21:33N 38°41' W 076°24'4 4.3
2014-Oct-16 20:33N 38°46' W 076°26'3 3.3
2014-Oct-16 19:33N 38°49' W 076°26'29 3.6
2014-Oct-16 11:29N 39°17' W 076°35'0 0.0
2014-Oct-14 21:05N 39°16' W 076°35'0 0.0
2014-Oct-14 20:27N 39°16' W 076°35'  
Track history (hours):
 
Tides and Currents Weather Stations Pressure Air Temp Water Temp Dewpoint Dewpoint Depression Visibility Wind Speed Wind Dir Waves Ship Positions

Summerwind (United States)

Ship's website: http://www.usmma.edu/waterfront

Owner: US Merchant Marine Academy, Kings Point, NY. More information available from US FCC via Universal Licensing System and Coast Guard Vessel Documentation Center.

Last reported at 2014-Oct-20 13:15 UTC. Time now 2014-Nov-24 21:41 UTC.
Position N 37°01' W 076°16'.
Warning: this ship's position is 35 days out of date.

Length 30 m.

Type: Sailing vessel. MMSI: 367440150.

Date/timePositionNaut miles runAvg speedWind from/ knotsBaromVisibWave heightAir tempDewpointWater temp
2014-Oct-20 13:15N 37°01' W 076°16'  
2014-Oct-17 13:05N 36°59' W 076°18'3 6.2
2014-Oct-17 12:32N 36°60' W 076°14'51 8.2
2014-Oct-17 06:22N 37°51' W 076°10'8 9.6
2014-Oct-17 05:33N 37°58' W 076°12'36 7.1
2014-Oct-17 00:27N 38°33' W 076°23'2 1.9
2014-Oct-16 23:33N 38°35' W 076°23'3 2.5
2014-Oct-16 22:33N 38°37' W 076°24'4 3.9
2014-Oct-16 21:33N 38°41' W 076°24'4 4.3
2014-Oct-16 20:33N 38°46' W 076°26'3 3.3
2014-Oct-16 19:33N 38°49' W 076°26'29 3.6
2014-Oct-16 11:29N 39°17' W 076°35'0 0.0
2014-Oct-14 21:05N 39°16' W 076°35'0 0.0
2014-Oct-14 20:27N 39°16' W 076°35'  

Dump ship's entire track history